createdAt,value
2018-05-10T00:01:46.864Z,6.33
2018-05-10T00:04:14.444Z,7.13
2018-05-10T00:06:42.115Z,5.83
2018-05-10T00:09:09.524Z,6.57
2018-05-10T00:11:36.916Z,6.53
2018-05-10T00:14:04.311Z,5.87
2018-05-10T00:16:31.923Z,6.90
2018-05-10T00:18:59.536Z,6.30
2018-05-10T00:21:27.223Z,6.07
2018-05-10T00:23:54.808Z,5.40
2018-05-10T00:26:23.144Z,6.17
2018-05-10T00:28:50.847Z,6.10
2018-05-10T00:31:18.425Z,6.45
2018-05-10T00:33:45.864Z,6.40
2018-05-10T00:36:13.588Z,6.57
2018-05-10T00:38:40.937Z,5.67
2018-05-10T00:41:08.319Z,6.73
2018-05-10T00:43:35.705Z,7.40
2018-05-10T00:46:03.086Z,6.10
2018-05-10T00:48:30.475Z,6.90
2018-05-10T00:50:57.855Z,6.17
2018-05-10T00:53:25.245Z,6.20
2018-05-10T00:55:52.645Z,6.55
2018-05-10T00:58:20.047Z,6.87
2018-05-10T01:00:47.416Z,6.53
2018-05-10T01:03:14.797Z,8.70
2018-05-10T01:05:42.196Z,7.87
2018-05-10T01:08:09.574Z,8.03
2018-05-10T01:10:36.959Z,6.97
2018-05-10T01:13:04.339Z,10.23
2018-05-10T01:15:31.734Z,9.52
2018-05-10T01:17:59.113Z,7.80
2018-05-10T01:20:26.499Z,8.00
2018-05-10T01:22:53.888Z,7.90
2018-05-10T01:25:21.272Z,7.83
2018-05-10T01:27:48.656Z,7.00
2018-05-10T01:30:16.047Z,8.33
2018-05-10T01:32:43.962Z,7.45
2018-05-10T01:35:23.046Z,8.50
2018-05-10T01:37:50.410Z,8.30
2018-05-10T01:40:17.784Z,7.60
2018-05-10T01:42:45.167Z,7.33
2018-05-10T01:45:12.559Z,7.77
2018-05-10T01:47:39.941Z,8.37
2018-05-10T01:50:07.317Z,7.87
2018-05-10T01:52:34.708Z,8.67
2018-05-10T01:55:02.084Z,8.50
2018-05-10T01:57:29.468Z,8.30
2018-05-10T01:59:56.838Z,8.73
2018-05-10T02:02:24.219Z,9.53
2018-05-10T02:04:51.613Z,9.75
2018-05-10T02:07:19.013Z,8.83
2018-05-10T02:09:46.403Z,9.67
2018-05-10T02:12:14.592Z,8.70
2018-05-10T02:14:42.083Z,9.30
2018-05-10T02:17:09.489Z,8.50
2018-05-10T02:19:36.983Z,10.20
2018-05-10T02:22:04.368Z,9.07
2018-05-10T02:24:31.964Z,9.60
2018-05-10T02:26:59.412Z,9.40
2018-05-10T02:29:27.104Z,10.30
2018-05-10T02:31:54.494Z,10.33
2018-05-10T02:34:21.963Z,9.10
2018-05-10T02:36:49.340Z,9.10
2018-05-10T02:39:16.732Z,8.83
2018-05-10T02:41:44.290Z,8.33
2018-05-10T02:44:11.722Z,9.33
2018-05-10T02:46:39.152Z,8.87
2018-05-10T02:49:06.527Z,10.50
2018-05-10T02:51:34.002Z,9.10
2018-05-10T02:54:01.371Z,8.80
2018-05-10T02:56:28.752Z,8.53
2018-05-10T02:58:56.136Z,8.67
2018-05-10T03:01:23.506Z,8.93
2018-05-10T03:03:50.892Z,8.33
2018-05-10T03:06:18.378Z,9.50
2018-05-10T03:08:45.974Z,8.80
2018-05-10T03:11:13.335Z,8.43
2018-05-10T03:13:40.774Z,8.53
2018-05-10T03:16:08.142Z,9.00
2018-05-10T03:18:35.524Z,8.43
2018-05-10T03:21:02.971Z,8.43
2018-05-10T03:23:30.352Z,8.88
2018-05-10T03:25:57.727Z,9.40
2018-05-10T03:28:25.109Z,8.83
2018-05-10T03:30:52.479Z,8.98
2018-05-10T03:33:19.903Z,9.23
2018-05-10T03:35:47.251Z,9.60
2018-05-10T03:38:14.945Z,10.00
2018-05-10T03:40:42.570Z,9.33
2018-05-10T03:43:10.169Z,9.60
2018-05-10T03:45:37.551Z,9.03
2018-05-10T03:48:04.952Z,8.47
2018-05-10T03:50:32.333Z,9.10
2018-05-10T03:52:59.749Z,8.13
2018-05-10T03:55:27.127Z,9.30
2018-05-10T03:57:54.511Z,9.03
2018-05-10T04:00:21.914Z,10.27
2018-05-10T04:06:11.861Z,9.20
2018-05-10T04:08:50.943Z,9.13
2018-05-10T04:11:28.487Z,9.23
2018-05-10T04:13:55.876Z,9.63
2018-05-10T04:16:23.267Z,9.43
2018-05-10T04:18:51.433Z,9.35
2018-05-10T04:21:18.815Z,9.40
2018-05-10T04:23:46.187Z,10.17
2018-05-10T04:26:13.566Z,9.63
2018-05-10T04:28:40.951Z,10.57
2018-05-10T04:31:08.629Z,10.20
2018-05-10T04:33:36.010Z,10.07
2018-05-10T04:36:03.399Z,9.60
2018-05-10T04:38:31.215Z,10.48
2018-05-10T04:40:58.612Z,10.90
2018-05-10T04:43:25.990Z,9.40
2018-05-10T04:45:53.367Z,9.17
2018-05-10T04:48:20.760Z,8.40
2018-05-10T04:50:48.127Z,9.83
2018-05-10T04:53:15.544Z,9.37
2018-05-10T04:55:42.913Z,9.48
2018-05-10T04:58:10.331Z,9.97
2018-05-10T05:00:37.715Z,10.13
2018-05-10T05:03:05.110Z,9.97
2018-05-10T05:05:32.484Z,10.30
2018-05-10T05:07:59.901Z,9.63
2018-05-10T05:10:27.272Z,9.20
2018-05-10T05:12:54.670Z,9.48
2018-05-10T05:15:22.954Z,8.90
2018-05-10T05:17:50.340Z,9.77
2018-05-10T05:20:17.736Z,10.00
2018-05-10T05:22:45.199Z,10.60
2018-05-10T05:25:12.579Z,11.27
2018-05-10T05:27:39.976Z,10.50
2018-05-10T05:30:07.406Z,11.00
2018-05-10T05:32:34.778Z,10.30
2018-05-10T05:35:02.288Z,11.73
2018-05-10T05:37:29.705Z,13.10
2018-05-10T05:39:57.107Z,14.00
2018-05-10T05:42:24.493Z,11.70
2018-05-10T05:44:51.879Z,13.10
2018-05-10T05:47:19.278Z,14.00
2018-05-10T05:49:46.670Z,13.23
2018-05-10T05:52:14.062Z,13.10
2018-05-10T05:54:41.461Z,13.17
2018-05-10T05:57:08.854Z,13.20
2018-05-10T05:59:36.230Z,12.17
2018-05-10T06:02:03.623Z,12.73
2018-05-10T06:04:31.018Z,12.73
2018-05-10T06:06:58.412Z,13.40
2018-05-10T06:09:25.807Z,12.50
2018-05-10T06:11:53.203Z,11.40
2018-05-10T06:14:20.599Z,11.57
2018-05-10T06:16:47.987Z,14.07
2018-05-10T06:19:16.798Z,13.02
2018-05-10T06:21:44.189Z,13.70
2018-05-10T06:24:11.574Z,14.10
2018-05-10T06:26:38.955Z,13.93
2018-05-10T06:29:06.393Z,16.23
2018-05-10T06:31:33.913Z,16.47
2018-05-10T06:34:01.318Z,16.40
2018-05-10T06:36:28.689Z,16.53
2018-05-10T06:38:56.085Z,15.53
2018-05-10T06:41:23.519Z,17.87
2018-05-10T06:43:50.855Z,21.48
2018-05-10T06:46:18.232Z,22.17
2018-05-10T06:48:45.662Z,21.73
2018-05-10T06:51:13.042Z,23.17
2018-05-10T06:53:40.485Z,23.83
2018-05-10T06:56:07.921Z,23.20
2018-05-10T06:58:35.402Z,24.20
2018-05-10T07:01:02.775Z,26.50
2018-05-10T07:03:30.244Z,27.42
2018-05-10T07:05:57.643Z,29.13
2018-05-10T07:08:25.028Z,32.47
2018-05-10T07:10:52.432Z,34.90
2018-05-10T07:13:19.814Z,40.08
2018-05-10T07:15:47.252Z,40.87
2018-05-10T07:18:14.635Z,47.40
2018-05-10T07:20:42.045Z,46.10
2018-05-10T07:23:09.667Z,47.07
2018-05-10T07:25:37.085Z,48.60
2018-05-10T07:28:04.465Z,51.33
2018-05-10T07:30:31.846Z,49.25
2018-05-10T07:32:59.293Z,53.50
2018-05-10T07:35:26.693Z,54.13
2018-05-10T07:37:54.062Z,56.00
2018-05-10T07:40:21.486Z,51.28
2018-05-10T07:42:48.867Z,52.72
2018-05-10T07:45:16.255Z,53.47
2018-05-10T07:47:43.654Z,52.27
2018-05-10T07:50:11.047Z,53.77
2018-05-10T07:52:38.444Z,52.97
2018-05-10T07:55:05.843Z,53.58
2018-05-10T07:57:33.496Z,55.63
2018-05-10T08:00:00.896Z,55.17
2018-05-10T08:02:28.284Z,53.30
2018-05-10T08:04:55.696Z,53.92
2018-05-10T08:07:23.081Z,52.80
2018-05-10T08:09:50.475Z,46.72
2018-05-10T08:12:17.853Z,45.67
2018-05-10T08:14:46.128Z,47.58
2018-05-10T08:17:13.524Z,46.87
2018-05-10T08:19:40.918Z,51.10
2018-05-10T08:22:08.303Z,49.70
2018-05-10T08:24:35.708Z,46.30
2018-05-10T08:27:03.109Z,50.50
2018-05-10T08:29:30.538Z,49.13
2018-05-10T08:31:57.908Z,46.08
2018-05-10T08:34:25.308Z,49.72
2018-05-10T08:36:52.707Z,47.87
2018-05-10T08:39:20.125Z,50.40
2018-05-10T08:41:47.509Z,50.00
2018-05-10T08:44:14.931Z,47.03
2018-05-10T08:46:42.323Z,47.87
2018-05-10T08:49:09.727Z,48.77
2018-05-10T08:51:37.157Z,44.88
2018-05-10T08:54:04.508Z,45.70
2018-05-10T08:56:32.039Z,43.72
2018-05-10T08:58:59.417Z,47.33
2018-05-10T09:01:26.862Z,44.28
2018-05-10T09:03:54.279Z,44.67
2018-05-10T09:06:21.679Z,42.40
2018-05-10T09:08:49.076Z,40.77
2018-05-10T09:11:16.503Z,43.00
2018-05-10T09:13:43.886Z,40.70
2018-05-10T09:16:11.290Z,40.77
2018-05-10T09:18:38.674Z,39.37
2018-05-10T09:21:06.065Z,39.97
2018-05-10T09:23:33.452Z,37.10
2018-05-10T09:26:00.868Z,40.27
2018-05-10T09:28:28.236Z,38.67
2018-05-10T09:30:55.655Z,39.03
2018-05-10T09:33:23.037Z,38.30
2018-05-10T09:35:50.433Z,38.15
2018-05-10T09:38:17.827Z,38.83
2018-05-10T09:40:45.860Z,36.60
2018-05-10T09:43:13.240Z,37.37
2018-05-10T09:45:40.637Z,37.45
2018-05-10T09:48:08.019Z,34.27
2018-05-10T09:50:35.557Z,36.30
2018-05-10T09:53:02.930Z,37.13
2018-05-10T09:55:30.449Z,33.90
2018-05-10T09:57:57.848Z,33.53
2018-05-10T10:00:30.242Z,34.17
2018-05-10T10:02:57.638Z,28.02
2018-05-10T10:05:25.024Z,32.33
2018-05-10T10:07:52.707Z,34.23
2018-05-10T10:10:20.111Z,33.03
2018-05-10T10:12:47.485Z,32.17
2018-05-10T10:15:14.890Z,31.30
2018-05-10T10:17:42.374Z,29.30
2018-05-10T10:20:09.678Z,28.87
2018-05-10T10:22:37.065Z,27.90
2018-05-10T10:25:04.459Z,26.25
2018-05-10T10:27:32.067Z,27.97
2018-05-10T10:29:59.489Z,26.30
2018-05-10T10:32:27.120Z,27.23
2018-05-10T10:34:54.465Z,27.97
2018-05-10T10:37:21.857Z,27.70
2018-05-10T10:39:49.247Z,29.63
2018-05-10T10:42:16.804Z,28.57
2018-05-10T10:44:44.269Z,29.97
2018-05-10T10:47:11.669Z,27.70
2018-05-10T10:49:39.104Z,25.17
2018-05-10T10:52:06.521Z,24.07
2018-05-10T10:54:33.928Z,25.70
2018-05-10T10:57:01.311Z,26.80
2018-05-10T10:59:28.887Z,27.00
2018-05-10T11:01:56.330Z,26.13
2018-05-10T11:04:23.683Z,25.70
2018-05-10T11:06:51.105Z,25.50
2018-05-10T11:09:18.650Z,25.23
2018-05-10T11:11:47.246Z,23.75
2018-05-10T11:14:14.681Z,23.10
2018-05-10T11:16:42.123Z,22.90
2018-05-10T11:19:09.532Z,22.73
2018-05-10T11:21:36.940Z,21.23
2018-05-10T11:24:04.339Z,22.27
2018-05-10T11:26:31.740Z,21.15
2018-05-10T11:28:59.159Z,20.80
2018-05-10T11:31:26.630Z,19.65
2018-05-10T11:33:54.041Z,21.98
2018-05-10T11:36:21.432Z,20.30
2018-05-10T11:38:48.826Z,20.93
2018-05-10T11:41:17.133Z,19.42
2018-05-10T11:43:44.553Z,22.90
2018-05-10T11:46:11.942Z,23.43
2018-05-10T11:48:39.408Z,24.50
2018-05-10T11:51:06.778Z,22.13
2018-05-10T11:53:34.164Z,23.70
2018-05-10T11:56:01.556Z,26.65
2018-05-10T11:58:28.951Z,22.77
2018-05-10T12:00:56.351Z,23.93
2018-05-10T12:03:23.741Z,24.77
2018-05-10T12:05:52.896Z,22.83
2018-05-10T12:08:20.278Z,23.47
2018-05-10T12:10:47.685Z,23.87
2018-05-10T12:13:15.094Z,24.73
2018-05-10T12:15:42.476Z,24.27
2018-05-10T12:18:09.871Z,22.43
2018-05-10T12:20:37.264Z,21.30
2018-05-10T12:23:04.653Z,22.07
2018-05-10T12:25:32.116Z,23.23
2018-05-10T12:27:59.437Z,21.23
2018-05-10T12:30:26.909Z,22.62
2018-05-10T12:32:54.224Z,20.73
2018-05-10T12:35:21.611Z,21.80
2018-05-10T12:37:49.051Z,20.20
2018-05-10T12:40:17.396Z,19.55
2018-05-10T12:42:44.791Z,21.80
2018-05-10T12:45:12.176Z,21.10
2018-05-10T12:47:39.563Z,22.00
2018-05-10T12:50:06.966Z,19.80
2018-05-10T12:52:34.359Z,20.70
2018-05-10T12:55:01.759Z,22.10
2018-05-10T12:57:29.336Z,22.42
2018-05-10T12:59:56.800Z,22.97
2018-05-10T13:02:24.251Z,22.08
2018-05-10T13:04:51.680Z,23.00
2018-05-10T13:07:19.585Z,23.60
2018-05-10T13:09:47.672Z,23.00
2018-05-10T13:12:15.116Z,22.27
2018-05-10T13:14:42.514Z,22.20
2018-05-10T13:17:09.911Z,23.43
2018-05-10T13:19:37.299Z,21.53
2018-05-10T13:22:04.700Z,21.27
2018-05-10T13:24:32.389Z,18.70
2018-05-10T13:26:59.773Z,19.80
2018-05-10T13:29:27.190Z,19.30
2018-05-10T13:31:54.556Z,17.83
2018-05-10T13:34:22.139Z,17.23
2018-05-10T13:36:49.533Z,17.83
2018-05-10T13:39:17.719Z,15.63
2018-05-10T13:41:45.143Z,16.77
2018-05-10T13:44:12.592Z,17.10
2018-05-10T13:46:40.254Z,16.20
2018-05-10T13:49:07.608Z,16.13
2018-05-10T13:51:34.994Z,15.13
2018-05-10T13:54:02.387Z,13.57
2018-05-10T13:56:29.777Z,14.33
2018-05-10T13:58:57.319Z,16.40
2018-05-10T14:01:24.693Z,16.30
2018-05-10T14:03:52.086Z,18.63
2018-05-10T14:06:19.471Z,18.50
2018-05-10T14:08:47.802Z,19.17
2018-05-10T14:11:15.204Z,21.10
2018-05-10T14:13:42.898Z,19.70
2018-05-10T14:16:10.390Z,21.63
2018-05-10T14:18:37.794Z,21.23
2018-05-10T14:21:05.184Z,21.17
2018-05-10T14:23:32.588Z,23.50
2018-05-10T14:26:00.972Z,24.47
2018-05-10T14:28:28.380Z,25.17
2018-05-10T14:30:55.793Z,26.03
2018-05-10T14:33:23.201Z,24.12
2018-05-10T14:35:50.610Z,24.80
2018-05-10T14:38:18.000Z,21.40
2018-05-10T14:40:45.383Z,12.97
2018-05-10T14:43:12.784Z,12.70
2018-05-10T14:45:40.309Z,13.97
2018-05-10T14:48:07.720Z,13.23
2018-05-10T14:50:35.140Z,13.57
2018-05-10T14:53:02.519Z,12.50
2018-05-10T14:55:29.916Z,11.68
2018-05-10T14:57:57.290Z,12.10
2018-05-10T15:00:24.680Z,12.23
2018-05-10T15:02:52.259Z,9.50
2018-05-10T15:05:19.696Z,9.23
2018-05-10T15:07:48.144Z,9.15
2018-05-10T15:10:15.635Z,9.47
2018-05-10T15:12:43.032Z,7.70
2018-05-10T15:15:10.441Z,10.50
2018-05-10T15:17:37.827Z,10.87
2018-05-10T15:20:05.212Z,7.80
2018-05-10T15:22:32.605Z,7.43
2018-05-10T15:24:59.990Z,8.10
2018-05-10T15:27:28.571Z,8.07
2018-05-10T15:29:56.068Z,7.70
2018-05-10T15:32:23.472Z,7.50
2018-05-10T15:34:50.956Z,9.43
2018-05-10T15:37:18.919Z,6.70
2018-05-10T15:39:46.314Z,5.87
2018-05-10T15:42:13.707Z,9.30
2018-05-10T15:44:41.078Z,8.07
2018-05-10T15:47:08.463Z,6.47
2018-05-10T15:49:35.854Z,6.87
2018-05-10T15:52:03.266Z,7.00
2018-05-10T15:54:30.645Z,9.00
2018-05-10T15:56:58.062Z,9.27
2018-05-10T15:59:25.563Z,6.83
2018-05-10T16:01:52.820Z,8.70
2018-05-10T16:04:20.212Z,9.70
2018-05-10T16:06:48.385Z,7.40
2018-05-10T16:09:15.782Z,7.87
2018-05-10T16:11:43.201Z,7.40
2018-05-10T16:14:10.604Z,8.43
2018-05-10T16:16:37.980Z,9.50
2018-05-10T16:19:05.378Z,8.87
2018-05-10T16:21:32.914Z,10.00
2018-05-10T16:24:00.483Z,9.75
2018-05-10T16:26:27.914Z,9.60
2018-05-10T16:28:55.506Z,9.97
2018-05-10T16:31:22.936Z,12.15
2018-05-10T16:33:50.761Z,10.07
2018-05-10T16:36:19.881Z,11.02
2018-05-10T16:38:47.336Z,11.10
2018-05-10T16:41:14.813Z,14.80
2018-05-10T16:43:42.224Z,12.70
2018-05-10T16:46:09.817Z,14.47
2018-05-10T16:48:37.206Z,11.57
2018-05-10T16:51:04.599Z,11.80
2018-05-10T16:53:32.002Z,14.40
2018-05-10T16:55:59.492Z,13.30
2018-05-10T16:58:26.907Z,12.18
2018-05-10T17:00:54.330Z,13.73
2018-05-10T17:03:21.734Z,13.05
2018-05-10T17:05:49.124Z,13.00
2018-05-10T17:08:16.541Z,14.27
2018-05-10T17:10:43.935Z,14.03
2018-05-10T17:13:11.332Z,14.03
2018-05-10T17:15:38.724Z,14.27
2018-05-10T17:18:06.115Z,15.27
2018-05-10T17:20:33.508Z,15.53
2018-05-10T17:23:01.168Z,13.10
2018-05-10T17:25:28.579Z,12.23
2018-05-10T17:27:55.965Z,9.60
2018-05-10T17:30:23.362Z,9.10
2018-05-10T17:32:50.789Z,8.87
2018-05-10T17:35:18.874Z,8.25
2018-05-10T17:37:46.267Z,8.00
2018-05-10T17:40:13.647Z,8.13
2018-05-10T17:42:41.056Z,8.90
2018-05-10T17:45:08.439Z,14.07
2018-05-10T17:47:35.835Z,9.45
2018-05-10T17:50:03.211Z,10.27
2018-05-10T17:52:30.615Z,12.13
2018-05-10T17:54:58.008Z,8.18
2018-05-10T17:57:25.707Z,10.73
2018-05-10T17:59:53.097Z,9.05
2018-05-10T18:02:20.474Z,8.73
2018-05-10T18:04:47.886Z,11.48
2018-05-10T18:07:15.309Z,10.20
2018-05-10T18:09:42.652Z,8.70
2018-05-10T18:12:10.047Z,8.87
2018-05-10T18:14:37.438Z,11.53
2018-05-10T18:17:05.035Z,10.25
2018-05-10T18:19:32.431Z,8.00
2018-05-10T18:21:59.827Z,11.90
2018-05-10T18:24:27.228Z,8.27
2018-05-10T18:26:54.708Z,10.70
2018-05-10T18:29:22.031Z,10.87
2018-05-10T18:31:49.423Z,12.97
2018-05-10T18:34:16.825Z,9.67
2018-05-10T18:36:44.216Z,9.73
2018-05-10T18:39:11.616Z,10.33
2018-05-10T18:41:39.014Z,11.33
2018-05-10T18:44:06.438Z,10.10
2018-05-10T18:46:34.080Z,11.47
2018-05-10T18:49:01.635Z,9.53
2018-05-10T18:51:29.023Z,9.55
2018-05-10T18:53:56.453Z,8.38
2018-05-10T18:56:23.825Z,7.60
2018-05-10T18:58:51.554Z,8.57
2018-05-10T19:01:20.206Z,8.95
2018-05-10T19:03:47.616Z,8.50
2018-05-10T19:06:16.439Z,12.57
2018-05-10T19:08:43.819Z,9.60
2018-05-10T19:11:11.207Z,9.47
2018-05-10T19:13:38.601Z,11.57
2018-05-10T19:16:05.975Z,9.15
2018-05-10T19:18:33.374Z,9.57
2018-05-10T19:21:00.824Z,10.00
2018-05-10T19:23:28.163Z,9.70
2018-05-10T19:25:55.559Z,8.55
2018-05-10T19:28:22.967Z,11.83
2018-05-10T19:30:50.359Z,8.60
2018-05-10T19:33:17.759Z,13.87
2018-05-10T19:35:45.175Z,8.53
2018-05-10T19:38:12.583Z,8.93
2018-05-10T19:40:40.006Z,9.70
2018-05-10T19:43:07.405Z,8.18
2018-05-10T19:45:34.800Z,9.90
2018-05-10T19:48:02.198Z,8.10
2018-05-10T19:50:29.597Z,8.47
2018-05-10T19:52:56.988Z,8.00
2018-05-10T19:55:26.836Z,8.63
2018-05-10T19:57:54.207Z,9.93
2018-05-10T20:00:21.629Z,9.47
2018-05-10T20:02:49.564Z,9.38
2018-05-10T20:05:17.013Z,10.10
2018-05-10T20:07:44.391Z,7.77
2018-05-10T20:10:11.779Z,8.63
2018-05-10T20:12:39.171Z,8.47
2018-05-10T20:15:06.607Z,8.82
2018-05-10T20:17:33.998Z,9.50
2018-05-10T20:20:01.389Z,12.57
2018-05-10T20:22:28.765Z,8.97
2018-05-10T20:24:56.156Z,9.47
2018-05-10T20:27:23.534Z,7.47
2018-05-10T20:29:50.960Z,8.80
2018-05-10T20:32:18.554Z,11.47
2018-05-10T20:34:46.842Z,9.97
2018-05-10T20:37:14.203Z,8.63
2018-05-10T20:39:41.595Z,12.23
2018-05-10T20:42:08.974Z,8.80
2018-05-10T20:44:36.439Z,9.77
2018-05-10T20:47:03.751Z,9.27
2018-05-10T20:49:31.157Z,9.82
2018-05-10T20:51:58.762Z,8.40
2018-05-10T20:54:26.422Z,9.13
2018-05-10T20:56:54.179Z,10.30
2018-05-10T20:59:21.594Z,9.07
2018-05-10T21:01:50.124Z,9.15
2018-05-10T21:04:17.583Z,11.97
2018-05-10T21:06:45.118Z,9.07
2018-05-10T21:09:12.526Z,12.20
2018-05-10T21:11:39.973Z,9.37
2018-05-10T21:14:07.407Z,9.10
2018-05-10T21:16:34.861Z,9.00
2018-05-10T21:19:02.230Z,10.63
2018-05-10T21:21:29.646Z,9.47
2018-05-10T21:23:58.093Z,10.00
2018-05-10T21:26:25.500Z,10.00
2018-05-10T21:28:52.884Z,10.55
2018-05-10T21:31:20.260Z,14.37
2018-05-10T21:33:48.163Z,11.40
2018-05-10T21:36:15.507Z,9.53
2018-05-10T21:38:42.883Z,9.53
2018-05-10T21:41:10.285Z,10.20
2018-05-10T21:43:37.669Z,10.32
2018-05-10T21:46:05.071Z,10.40
2018-05-10T21:48:33.078Z,10.17
2018-05-10T21:51:00.480Z,11.03
2018-05-10T21:53:27.880Z,12.10
2018-05-10T21:55:55.280Z,9.10
2018-05-10T21:58:22.692Z,13.27
2018-05-10T22:00:50.102Z,11.70
2018-05-10T22:03:17.499Z,9.33
2018-05-10T22:05:44.887Z,10.53
2018-05-10T22:08:12.280Z,10.67
2018-05-10T22:10:39.684Z,12.27
2018-05-10T22:13:07.075Z,10.63
2018-05-10T22:15:34.476Z,11.33
2018-05-10T22:18:01.946Z,11.50
2018-05-10T22:20:29.264Z,10.33
2018-05-10T22:22:56.644Z,10.52
2018-05-10T22:25:24.050Z,10.80
2018-05-10T22:27:51.442Z,10.40
2018-05-10T22:30:18.918Z,10.77
2018-05-10T22:32:46.324Z,10.10
2018-05-10T22:35:13.716Z,10.57
2018-05-10T22:37:41.097Z,10.90
2018-05-10T22:40:08.501Z,10.83
2018-05-10T22:42:35.887Z,10.80
2018-05-10T22:45:03.284Z,10.77
2018-05-10T22:47:30.679Z,9.95
2018-05-10T22:49:58.070Z,11.60
2018-05-10T22:52:25.465Z,10.43
2018-05-10T22:54:52.851Z,10.03
2018-05-10T22:57:20.384Z,9.93
2018-05-10T22:59:47.863Z,10.47
2018-05-10T23:02:15.213Z,10.60
2018-05-10T23:04:42.618Z,11.20
2018-05-10T23:07:10.004Z,10.67
2018-05-10T23:09:37.415Z,11.47
2018-05-10T23:12:04.902Z,10.48
2018-05-10T23:14:32.388Z,10.85
2018-05-10T23:16:59.779Z,10.13
2018-05-10T23:19:27.184Z,12.47
2018-05-10T23:21:54.585Z,10.53
2018-05-10T23:24:21.989Z,11.27
2018-05-10T23:26:49.395Z,10.43
2018-05-10T23:29:16.783Z,10.50
2018-05-10T23:31:44.177Z,11.13
2018-05-10T23:34:11.564Z,11.77
2018-05-10T23:36:38.959Z,11.07
2018-05-10T23:39:06.353Z,10.40
2018-05-10T23:41:33.737Z,11.90
2018-05-10T23:44:01.155Z,10.65
2018-05-10T23:46:28.568Z,10.80
2018-05-10T23:48:55.956Z,10.35
2018-05-10T23:51:23.358Z,14.30
2018-05-10T23:53:50.751Z,11.30
2018-05-10T23:56:18.144Z,11.00
2018-05-10T23:58:45.543Z,11.03
